sensor_id;sensor_type;location;lat;lon;timestamp;pressure;altitude;pressure_sealevel;temperature;humidity
59391;BME280;53405;57.012;40.984;2022-09-27T00:02:07;99649.56;;;9.77;91.57
59391;BME280;53405;57.012;40.984;2022-09-27T00:04:55;99651.09;;;9.72;91.74
59391;BME280;53405;57.012;40.984;2022-09-27T00:07:43;99643.94;;;9.81;91.73
59391;BME280;53405;57.012;40.984;2022-09-27T00:10:30;99636.13;;;9.57;92.81
59391;BME280;53405;57.012;40.984;2022-09-27T00:13:18;99645.47;;;9.75;92.03
59391;BME280;53405;57.012;40.984;2022-09-27T00:16:06;99648.81;;;9.84;91.29
59391;BME280;53405;57.012;40.984;2022-09-27T00:19:00;99642.59;;;9.70;92.09
59391;BME280;53405;57.012;40.984;2022-09-27T00:21:49;99650.66;;;9.83;91.60
59391;BME280;53405;57.012;40.984;2022-09-27T00:24:36;99653.91;;;9.70;92.16
59391;BME280;53405;57.012;40.984;2022-09-27T00:27:25;99645.38;;;9.83;90.88
59391;BME280;53405;57.012;40.984;2022-09-27T00:30:13;99647.22;;;9.83;91.02
59391;BME280;53405;57.012;40.984;2022-09-27T00:33:01;99647.00;;;9.54;92.50
59391;BME280;53405;57.012;40.984;2022-09-27T00:35:49;99659.53;;;9.52;93.13
59391;BME280;53405;57.012;40.984;2022-09-27T00:38:36;99663.50;;;9.63;92.02
59391;BME280;53405;57.012;40.984;2022-09-27T00:41:34;99654.53;;;9.72;92.23
59391;BME280;53405;57.012;40.984;2022-09-27T00:50:25;99655.81;;;9.76;91.61
59391;BME280;53405;57.012;40.984;2022-09-27T00:53:17;99663.25;;;9.73;91.69
59391;BME280;53405;57.012;40.984;2022-09-27T00:56:09;99671.38;;;9.63;92.50
59391;BME280;53405;57.012;40.984;2022-09-27T00:59:05;99666.44;;;9.68;91.73
59391;BME280;53405;57.012;40.984;2022-09-27T01:01:54;99670.84;;;9.53;92.00
59391;BME280;53405;57.012;40.984;2022-09-27T01:04:43;99669.78;;;9.62;91.57
59391;BME280;53405;57.012;40.984;2022-09-27T01:07:32;99665.31;;;9.63;90.94
59391;BME280;53405;57.012;40.984;2022-09-27T01:10:20;99672.94;;;9.72;90.59
59391;BME280;53405;57.012;40.984;2022-09-27T01:13:19;99676.47;;;9.65;90.32
59391;BME280;53405;57.012;40.984;2022-09-27T01:22:55;99688.53;;;9.74;90.25
59391;BME280;53405;57.012;40.984;2022-09-27T01:32:10;99702.63;;;9.43;91.92
59391;BME280;53405;57.012;40.984;2022-09-27T01:35:19;99697.03;;;9.61;92.03
59391;BME280;53405;57.012;40.984;2022-09-27T01:41:39;99701.13;;;9.64;91.26
59391;BME280;53405;57.012;40.984;2022-09-27T01:44:53;99698.16;;;9.67;91.06
59391;BME280;53405;57.012;40.984;2022-09-27T01:47:58;99692.06;;;9.51;91.75
59391;BME280;53405;57.012;40.984;2022-09-27T01:51:11;99700.56;;;9.53;92.34
59391;BME280;53405;57.012;40.984;2022-09-27T01:54:02;99706.94;;;9.59;90.85
59391;BME280;53405;57.012;40.984;2022-09-27T01:57:15;99707.47;;;9.54;90.85
59391;BME280;53405;57.012;40.984;2022-09-27T02:00:07;99699.25;;;9.34;90.94
59391;BME280;53405;57.012;40.984;2022-09-27T02:03:21;99724.38;;;9.37;91.18
59391;BME280;53405;57.012;40.984;2022-09-27T02:06:41;99718.09;;;9.38;91.55
59391;BME280;53405;57.012;40.984;2022-09-27T02:09:45;99716.59;;;9.44;92.28
59391;BME280;53405;57.012;40.984;2022-09-27T02:12:48;99722.06;;;9.57;91.75
59391;BME280;53405;57.012;40.984;2022-09-27T02:15:51;99721.13;;;9.50;91.88
59391;BME280;53405;57.012;40.984;2022-09-27T02:19:11;99729.13;;;9.56;92.05
59391;BME280;53405;57.012;40.984;2022-09-27T02:31:00;99722.72;;;9.36;92.40
59391;BME280;53405;57.012;40.984;2022-09-27T02:37:09;99726.16;;;9.36;91.37
59391;BME280;53405;57.012;40.984;2022-09-27T02:39:57;99719.09;;;9.14;92.62
59391;BME280;53405;57.012;40.984;2022-09-27T02:42:45;99725.66;;;9.18;93.11
59391;BME280;53405;57.012;40.984;2022-09-27T02:52:37;99723.22;;;9.16;92.28
59391;BME280;53405;57.012;40.984;2022-09-27T03:05:47;99730.50;;;9.29;91.87
59391;BME280;53405;57.012;40.984;2022-09-27T03:08:38;99713.47;;;9.02;92.74
59391;BME280;53405;57.012;40.984;2022-09-27T03:11:27;99712.09;;;9.06;92.63
59391;BME280;53405;57.012;40.984;2022-09-27T03:14:15;99745.38;;;9.14;93.23
59391;BME280;53405;57.012;40.984;2022-09-27T03:17:15;99740.06;;;9.22;92.82
59391;BME280;53405;57.012;40.984;2022-09-27T03:20:28;99739.69;;;9.33;92.02
59391;BME280;53405;57.012;40.984;2022-09-27T03:23:27;99745.38;;;9.37;91.24
59391;BME280;53405;57.012;40.984;2022-09-27T03:26:15;99749.53;;;9.31;91.79
59391;BME280;53405;57.012;40.984;2022-09-27T03:29:03;99728.97;;;9.12;93.06
59391;BME280;53405;57.012;40.984;2022-09-27T03:31:51;99740.66;;;9.32;91.88
59391;BME280;53405;57.012;40.984;2022-09-27T03:34:51;99756.69;;;9.14;92.63
59391;BME280;53405;57.012;40.984;2022-09-27T03:37:41;99754.78;;;9.31;92.49
59391;BME280;53405;57.012;40.984;2022-09-27T03:40:29;99757.06;;;9.34;91.87
59391;BME280;53405;57.012;40.984;2022-09-27T03:43:17;99751.53;;;9.29;91.71
59391;BME280;53405;57.012;40.984;2022-09-27T03:46:05;99748.72;;;9.31;92.63
59391;BME280;53405;57.012;40.984;2022-09-27T03:48:53;99749.59;;;9.46;91.38
59391;BME280;53405;57.012;40.984;2022-09-27T03:51:41;99734.28;;;9.27;90.74
59391;BME280;53405;57.012;40.984;2022-09-27T03:54:28;99754.44;;;9.34;90.99
59391;BME280;53405;57.012;40.984;2022-09-27T03:57:16;99764.06;;;9.19;92.40
59391;BME280;53405;57.012;40.984;2022-09-27T04:00:05;99753.09;;;9.38;91.75
59391;BME280;53405;57.012;40.984;2022-09-27T04:02:59;99751.91;;;9.41;91.96
59391;BME280;53405;57.012;40.984;2022-09-27T04:05:46;99759.94;;;9.48;92.53
59391;BME280;53405;57.012;40.984;2022-09-27T04:08:38;99761.97;;;9.37;91.91
59391;BME280;53405;57.012;40.984;2022-09-27T04:11:26;99764.94;;;9.34;91.63
59391;BME280;53405;57.012;40.984;2022-09-27T04:14:13;99758.44;;;9.30;91.13
59391;BME280;53405;57.012;40.984;2022-09-27T04:17:21;99755.38;;;9.18;90.55
59391;BME280;53405;57.012;40.984;2022-09-27T04:20:37;99773.94;;;9.17;90.60
59391;BME280;53405;57.012;40.984;2022-09-27T04:23:31;99775.44;;;9.11;91.47
59391;BME280;53405;57.012;40.984;2022-09-27T04:26:20;99787.53;;;9.20;91.71
59391;BME280;53405;57.012;40.984;2022-09-27T04:29:18;99784.91;;;9.20;91.17
59391;BME280;53405;57.012;40.984;2022-09-27T04:32:11;99782.97;;;9.14;91.03
59391;BME280;53405;57.012;40.984;2022-09-27T04:35:30;99785.31;;;9.09;91.35
59391;BME280;53405;57.012;40.984;2022-09-27T04:38:38;99783.03;;;9.06;92.12
59391;BME280;53405;57.012;40.984;2022-09-27T04:41:27;99784.63;;;9.15;91.38
59391;BME280;53405;57.012;40.984;2022-09-27T04:44:15;99793.66;;;9.13;91.03
59391;BME280;53405;57.012;40.984;2022-09-27T04:47:08;99784.31;;;9.10;91.32
59391;BME280;53405;57.012;40.984;2022-09-27T04:49:56;99788.03;;;9.16;91.41
59391;BME280;53405;57.012;40.984;2022-09-27T04:52:49;99783.47;;;9.18;92.09
59391;BME280;53405;57.012;40.984;2022-09-27T04:55:38;99788.13;;;9.31;92.83
59391;BME280;53405;57.012;40.984;2022-09-27T04:58:25;99780.47;;;9.44;90.97
59391;BME280;53405;57.012;40.984;2022-09-27T05:01:13;99760.63;;;9.42;90.41
59391;BME280;53405;57.012;40.984;2022-09-27T05:04:19;99775.56;;;9.41;90.15
59391;BME280;53405;57.012;40.984;2022-09-27T05:07:10;99787.56;;;9.44;90.31
59391;BME280;53405;57.012;40.984;2022-09-27T05:10:03;99765.88;;;9.18;90.25
59391;BME280;53405;57.012;40.984;2022-09-27T05:12:51;99768.69;;;9.17;90.46
59391;BME280;53405;57.012;40.984;2022-09-27T05:15:39;99798.47;;;9.32;90.37
59391;BME280;53405;57.012;40.984;2022-09-27T05:19:06;99798.47;;;9.32;90.04
59391;BME280;53405;57.012;40.984;2022-09-27T05:22:21;99802.78;;;9.25;90.47
59391;BME280;53405;57.012;40.984;2022-09-27T05:25:12;99805.38;;;9.33;90.85
59391;BME280;53405;57.012;40.984;2022-09-27T05:27:59;99805.50;;;9.40;90.68
59391;BME280;53405;57.012;40.984;2022-09-27T05:30:47;99807.41;;;9.23;90.21
59391;BME280;53405;57.012;40.984;2022-09-27T05:33:39;99808.31;;;9.07;90.56
59391;BME280;53405;57.012;40.984;2022-09-27T05:36:51;99813.00;;;9.20;91.28
59391;BME280;53405;57.012;40.984;2022-09-27T05:39:38;99808.53;;;9.29;91.95
59391;BME280;53405;57.012;40.984;2022-09-27T05:42:26;99817.28;;;9.44;90.77
59391;BME280;53405;57.012;40.984;2022-09-27T05:45:14;99817.09;;;9.46;90.44
59391;BME280;53405;57.012;40.984;2022-09-27T05:48:02;99823.03;;;9.48;90.48
59391;BME280;53405;57.012;40.984;2022-09-27T05:50:55;99818.28;;;9.43;90.17
59391;BME280;53405;57.012;40.984;2022-09-27T05:53:42;99825.59;;;9.56;90.51
59391;BME280;53405;57.012;40.984;2022-09-27T05:56:38;99829.78;;;9.65;90.84
59391;BME280;53405;57.012;40.984;2022-09-27T05:59:31;99820.19;;;9.72;91.15
59391;BME280;53405;57.012;40.984;2022-09-27T06:03:00;99834.88;;;9.67;89.92
59391;BME280;53405;57.012;40.984;2022-09-27T06:06:09;99831.31;;;9.59;90.06
59391;BME280;53405;57.012;40.984;2022-09-27T06:09:09;99837.25;;;9.53;89.38
59391;BME280;53405;57.012;40.984;2022-09-27T06:11:57;99834.41;;;9.40;89.44
59391;BME280;53405;57.012;40.984;2022-09-27T06:14:45;99834.34;;;9.48;90.05
59391;BME280;53405;57.012;40.984;2022-09-27T06:17:47;99841.75;;;9.45;89.77
59391;BME280;53405;57.012;40.984;2022-09-27T06:20:39;99846.63;;;9.56;90.27
59391;BME280;53405;57.012;40.984;2022-09-27T06:23:29;99840.00;;;9.60;89.83
59391;BME280;53405;57.012;40.984;2022-09-27T06:26:27;99840.72;;;9.54;90.11
59391;BME280;53405;57.012;40.984;2022-09-27T06:29:34;99831.38;;;9.51;89.41
59391;BME280;53405;57.012;40.984;2022-09-27T06:32:24;99835.50;;;9.46;89.77
59391;BME280;53405;57.012;40.984;2022-09-27T06:35:17;99840.94;;;9.44;92.34
59391;BME280;53405;57.012;40.984;2022-09-27T06:38:06;99834.91;;;9.58;91.80
59391;BME280;53405;57.012;40.984;2022-09-27T06:41:05;99824.81;;;9.47;91.60
59391;BME280;53405;57.012;40.984;2022-09-27T06:44:19;99820.84;;;9.51;89.58
59391;BME280;53405;57.012;40.984;2022-09-27T06:47:25;99828.22;;;9.56;89.94
59391;BME280;53405;57.012;40.984;2022-09-27T06:50:33;99816.63;;;9.42;90.17
59391;BME280;53405;57.012;40.984;2022-09-27T06:53:21;99819.13;;;9.58;90.76
59391;BME280;53405;57.012;40.984;2022-09-27T06:56:10;99830.72;;;9.72;90.31
59391;BME280;53405;57.012;40.984;2022-09-27T06:59:09;99835.38;;;9.85;91.29
59391;BME280;53405;57.012;40.984;2022-09-27T07:02:33;99821.81;;;9.97;89.71
59391;BME280;53405;57.012;40.984;2022-09-27T07:05:34;99847.09;;;10.21;87.66
59391;BME280;53405;57.012;40.984;2022-09-27T07:08:52;99835.59;;;9.99;86.05
59391;BME280;53405;57.012;40.984;2022-09-27T07:11:41;99848.41;;;10.02;86.77
59391;BME280;53405;57.012;40.984;2022-09-27T07:14:33;99846.84;;;10.07;87.60
59391;BME280;53405;57.012;40.984;2022-09-27T07:17:22;99860.59;;;10.18;86.45
59391;BME280;53405;57.012;40.984;2022-09-27T07:20:11;99857.34;;;10.16;85.56
59391;BME280;53405;57.012;40.984;2022-09-27T07:22:59;99862.47;;;10.09;88.53
59391;BME280;53405;57.012;40.984;2022-09-27T07:26:07;99848.91;;;10.20;88.40
59391;BME280;53405;57.012;40.984;2022-09-27T07:28:58;99869.88;;;10.28;87.15
59391;BME280;53405;57.012;40.984;2022-09-27T07:31:48;99864.88;;;10.19;85.26
59391;BME280;53405;57.012;40.984;2022-09-27T07:34:36;99877.16;;;10.03;85.45
59391;BME280;53405;57.012;40.984;2022-09-27T07:37:24;99879.44;;;10.06;87.16
59391;BME280;53405;57.012;40.984;2022-09-27T07:40:11;99883.75;;;10.22;87.17
59391;BME280;53405;57.012;40.984;2022-09-27T07:43:00;99875.72;;;10.39;85.68
59391;BME280;53405;57.012;40.984;2022-09-27T07:45:48;99889.09;;;10.52;84.92
59391;BME280;53405;57.012;40.984;2022-09-27T07:49:02;99885.84;;;10.50;84.15
59391;BME280;53405;57.012;40.984;2022-09-27T07:51:52;99894.50;;;10.36;83.78
59391;BME280;53405;57.012;40.984;2022-09-27T07:55:10;99864.81;;;10.04;85.00
59391;BME280;53405;57.012;40.984;2022-09-27T07:58:18;99890.16;;;10.05;85.65
59391;BME280;53405;57.012;40.984;2022-09-27T08:01:07;99896.09;;;9.99;84.51
59391;BME280;53405;57.012;40.984;2022-09-27T08:03:54;99896.91;;;9.99;84.26
59391;BME280;53405;57.012;40.984;2022-09-27T08:06:45;99896.56;;;10.02;85.46
59391;BME280;53405;57.012;40.984;2022-09-27T08:09:33;99888.56;;;10.19;84.88
59391;BME280;53405;57.012;40.984;2022-09-27T08:12:21;99893.47;;;10.22;85.10
59391;BME280;53405;57.012;40.984;2022-09-27T08:15:09;99901.34;;;10.45;85.02
59391;BME280;53405;57.012;40.984;2022-09-27T08:17:56;99883.63;;;10.39;86.20
59391;BME280;53405;57.012;40.984;2022-09-27T08:21:23;99900.09;;;10.71;85.19
59391;BME280;53405;57.012;40.984;2022-09-27T08:24:29;99902.03;;;10.77;82.72
59391;BME280;53405;57.012;40.984;2022-09-27T08:27:24;99900.16;;;10.62;85.29
59391;BME280;53405;57.012;40.984;2022-09-27T08:30:15;99902.84;;;10.77;84.50
59391;BME280;53405;57.012;40.984;2022-09-27T08:33:03;99893.66;;;10.73;84.62
59391;BME280;53405;57.012;40.984;2022-09-27T08:35:51;99903.09;;;10.82;83.85
59391;BME280;53405;57.012;40.984;2022-09-27T08:38:39;99904.09;;;10.96;82.33
59391;BME280;53405;57.012;40.984;2022-09-27T08:41:35;99905.09;;;10.95;82.71
59391;BME280;53405;57.012;40.984;2022-09-27T08:44:32;99899.63;;;10.97;80.09
59391;BME280;53405;57.012;40.984;2022-09-27T08:47:57;99899.56;;;10.90;80.45
59391;BME280;53405;57.012;40.984;2022-09-27T08:50:47;99902.94;;;10.99;79.92
59391;BME280;53405;57.012;40.984;2022-09-27T08:56:26;99905.03;;;10.74;79.52
59391;BME280;53405;57.012;40.984;2022-09-27T08:59:27;99901.63;;;10.80;79.51
59391;BME280;53405;57.012;40.984;2022-09-27T09:02:19;99918.25;;;10.95;80.32
59391;BME280;53405;57.012;40.984;2022-09-27T09:05:36;99917.19;;;11.05;82.19
59391;BME280;53405;57.012;40.984;2022-09-27T09:11:59;99917.34;;;11.03;81.83
59391;BME280;53405;57.012;40.984;2022-09-27T09:34:22;99922.56;;;11.84;76.83
59391;BME280;53405;57.012;40.984;2022-09-27T09:37:18;99920.34;;;11.66;78.75
59391;BME280;53405;57.012;40.984;2022-09-27T09:40:16;99912.19;;;11.83;75.79
59391;BME280;53405;57.012;40.984;2022-09-27T09:43:15;99923.69;;;11.75;76.30
59391;BME280;53405;57.012;40.984;2022-09-27T09:46:09;99911.94;;;11.78;75.05
59391;BME280;53405;57.012;40.984;2022-09-27T09:52:04;99923.53;;;11.62;74.09
59391;BME280;53405;57.012;40.984;2022-09-27T09:55:03;99914.13;;;11.37;74.76
59391;BME280;53405;57.012;40.984;2022-09-27T09:58:01;99920.03;;;11.39;75.51
59391;BME280;53405;57.012;40.984;2022-09-27T10:01:20;99926.16;;;11.40;75.05
59391;BME280;53405;57.012;40.984;2022-09-27T10:04:18;99922.97;;;11.45;76.76
59391;BME280;53405;57.012;40.984;2022-09-27T10:07:07;99928.19;;;11.60;75.31
59391;BME280;53405;57.012;40.984;2022-09-27T10:09:59;99922.00;;;11.52;74.60
59391;BME280;53405;57.012;40.984;2022-09-27T10:13:01;99926.09;;;11.55;74.31
59391;BME280;53405;57.012;40.984;2022-09-27T10:16:00;99922.31;;;11.43;74.96
59391;BME280;53405;57.012;40.984;2022-09-27T10:18:55;99931.97;;;11.20;75.20
59391;BME280;53405;57.012;40.984;2022-09-27T10:21:45;99925.88;;;11.05;78.23
59391;BME280;53405;57.012;40.984;2022-09-27T10:31:22;99922.53;;;10.81;81.28
59391;BME280;53405;57.012;40.984;2022-09-27T10:34:27;99927.44;;;10.84;83.11
59391;BME280;53405;57.012;40.984;2022-09-27T10:37:22;99906.81;;;10.73;84.19
59391;BME280;53405;57.012;40.984;2022-09-27T10:40:35;99929.09;;;11.00;85.07
59391;BME280;53405;57.012;40.984;2022-09-27T10:43:32;99935.88;;;11.10;86.43
59391;BME280;53405;57.012;40.984;2022-09-27T10:46:36;99932.53;;;11.16;86.96
59391;BME280;53405;57.012;40.984;2022-09-27T10:50:10;99925.91;;;11.20;87.12
59391;BME280;53405;57.012;40.984;2022-09-27T10:53:23;99925.28;;;11.18;86.88
59391;BME280;53405;57.012;40.984;2022-09-27T10:56:26;99935.63;;;11.19;87.39
59391;BME280;53405;57.012;40.984;2022-09-27T10:59:17;99934.06;;;11.25;85.96
59391;BME280;53405;57.012;40.984;2022-09-27T11:02:19;99950.41;;;11.20;84.71
59391;BME280;53405;57.012;40.984;2022-09-27T11:08:21;99947.53;;;11.00;83.97
59391;BME280;53405;57.012;40.984;2022-09-27T11:11:27;99950.72;;;10.96;84.58
59391;BME280;53405;57.012;40.984;2022-09-27T11:14:23;99955.31;;;10.94;85.52
59391;BME280;53405;57.012;40.984;2022-09-27T11:17:18;99946.34;;;10.88;84.26
59391;BME280;53405;57.012;40.984;2022-09-27T11:20:38;99946.72;;;10.85;83.73
59391;BME280;53405;57.012;40.984;2022-09-27T11:24:11;99944.16;;;10.77;83.59
59391;BME280;53405;57.012;40.984;2022-09-27T11:30:10;99947.38;;;10.64;84.41
59391;BME280;53405;57.012;40.984;2022-09-27T11:53:44;99944.38;;;10.52;82.62
59391;BME280;53405;57.012;40.984;2022-09-27T12:09:00;99953.69;;;10.78;84.74
59391;BME280;53405;57.012;40.984;2022-09-27T12:11:56;99934.25;;;10.79;85.59
59391;BME280;53405;57.012;40.984;2022-09-27T12:14:52;99950.41;;;10.91;84.36
59391;BME280;53405;57.012;40.984;2022-09-27T12:17:47;99949.06;;;10.95;84.07
59391;BME280;53405;57.012;40.984;2022-09-27T12:20:36;99942.16;;;10.94;84.42
59391;BME280;53405;57.012;40.984;2022-09-27T12:26:43;99945.00;;;11.07;82.91
59391;BME280;53405;57.012;40.984;2022-09-27T12:29:38;99945.63;;;11.09;82.70
59391;BME280;53405;57.012;40.984;2022-09-27T12:32:35;99938.34;;;11.11;82.88
59391;BME280;53405;57.012;40.984;2022-09-27T12:35:34;99916.00;;;11.07;82.83
59391;BME280;53405;57.012;40.984;2022-09-27T12:41:23;99934.78;;;11.19;82.41
59391;BME280;53405;57.012;40.984;2022-09-27T12:44:37;99940.78;;;11.13;84.44
59391;BME280;53405;57.012;40.984;2022-09-27T12:50:49;99937.53;;;11.11;85.24
59391;BME280;53405;57.012;40.984;2022-09-27T13:00:07;99942.72;;;11.04;85.34
59391;BME280;53405;57.012;40.984;2022-09-27T13:12:28;99936.06;;;10.93;87.02
59391;BME280;53405;57.012;40.984;2022-09-27T13:15:25;99934.28;;;11.09;85.94
59391;BME280;53405;57.012;40.984;2022-09-27T13:18:31;99932.44;;;11.09;85.66
59391;BME280;53405;57.012;40.984;2022-09-27T13:32:13;99942.81;;;10.96;86.26
59391;BME280;53405;57.012;40.984;2022-09-27T13:35:24;99943.00;;;10.94;86.35
59391;BME280;53405;57.012;40.984;2022-09-27T13:38:22;99940.06;;;10.89;86.49
59391;BME280;53405;57.012;40.984;2022-09-27T13:41:17;99945.88;;;10.84;87.56
59391;BME280;53405;57.012;40.984;2022-09-27T13:47:33;99946.41;;;10.80;85.75
59391;BME280;53405;57.012;40.984;2022-09-27T13:50:38;99937.97;;;10.70;86.06
59391;BME280;53405;57.012;40.984;2022-09-27T13:53:38;99942.59;;;10.68;86.08
59391;BME280;53405;57.012;40.984;2022-09-27T13:59:43;99939.75;;;10.54;85.84
59391;BME280;53405;57.012;40.984;2022-09-27T14:03:14;99922.34;;;10.30;85.65
59391;BME280;53405;57.012;40.984;2022-09-27T14:06:06;99942.19;;;10.41;86.97
59391;BME280;53405;57.012;40.984;2022-09-27T14:09:03;99938.66;;;10.25;86.69
59391;BME280;53405;57.012;40.984;2022-09-27T14:11:57;99935.41;;;10.23;87.50
59391;BME280;53405;57.012;40.984;2022-09-27T14:14:45;99934.56;;;10.23;87.77
59391;BME280;53405;57.012;40.984;2022-09-27T14:17:40;99932.81;;;10.15;87.96
59391;BME280;53405;57.012;40.984;2022-09-27T14:20:44;99929.97;;;10.25;88.19
59391;BME280;53405;57.012;40.984;2022-09-27T14:27:37;99913.94;;;10.11;88.51
59391;BME280;53405;57.012;40.984;2022-09-27T14:31:17;99926.38;;;10.18;88.75
59391;BME280;53405;57.012;40.984;2022-09-27T14:34:24;99930.13;;;10.23;88.80
59391;BME280;53405;57.012;40.984;2022-09-27T14:37:23;99931.13;;;10.22;88.67
59391;BME280;53405;57.012;40.984;2022-09-27T14:40:22;99937.53;;;10.20;88.94
59391;BME280;53405;57.012;40.984;2022-09-27T14:43:16;99938.25;;;10.13;88.90
59391;BME280;53405;57.012;40.984;2022-09-27T14:46:06;99927.16;;;10.03;88.90
59391;BME280;53405;57.012;40.984;2022-09-27T14:48:54;99930.41;;;10.05;88.80
59391;BME280;53405;57.012;40.984;2022-09-27T14:51:53;99934.53;;;10.08;89.37
59391;BME280;53405;57.012;40.984;2022-09-27T14:54:40;99940.31;;;10.03;89.51
59391;BME280;53405;57.012;40.984;2022-09-27T14:57:31;99939.84;;;10.00;89.73
59391;BME280;53405;57.012;40.984;2022-09-27T15:00:27;99936.56;;;9.98;90.06
59391;BME280;53405;57.012;40.984;2022-09-27T15:03:26;99948.56;;;10.00;89.97
59391;BME280;53405;57.012;40.984;2022-09-27T15:06:17;99951.81;;;10.02;89.88
59391;BME280;53405;57.012;40.984;2022-09-27T15:09:06;99951.13;;;10.08;90.00
59391;BME280;53405;57.012;40.984;2022-09-27T15:11:58;99958.31;;;10.15;90.53
59391;BME280;53405;57.012;40.984;2022-09-27T15:14:47;99935.25;;;10.17;90.75
59391;BME280;53405;57.012;40.984;2022-09-27T15:17:42;99945.19;;;10.29;89.32
59391;BME280;53405;57.012;40.984;2022-09-27T15:20:32;99957.53;;;10.29;88.44
59391;BME280;53405;57.012;40.984;2022-09-27T15:23:30;99951.19;;;10.23;89.66
59391;BME280;53405;57.012;40.984;2022-09-27T15:26:24;99948.84;;;10.28;87.82
59391;BME280;53405;57.012;40.984;2022-09-27T15:29:21;99918.22;;;10.12;88.26
59391;BME280;53405;57.012;40.984;2022-09-27T15:32:15;99938.38;;;10.20;88.25
59391;BME280;53405;57.012;40.984;2022-09-27T15:35:07;99938.25;;;10.13;87.38
59391;BME280;53405;57.012;40.984;2022-09-27T15:38:39;99940.59;;;10.08;87.79
59391;BME280;53405;57.012;40.984;2022-09-27T15:44:56;99935.13;;;9.95;87.67
59391;BME280;53405;57.012;40.984;2022-09-27T15:47:47;99925.81;;;9.84;87.75
59391;BME280;53405;57.012;40.984;2022-09-27T15:50:36;99934.03;;;9.81;88.63
59391;BME280;53405;57.012;40.984;2022-09-27T15:56:21;99928.63;;;9.83;89.45
59391;BME280;53405;57.012;40.984;2022-09-27T15:59:19;99934.09;;;9.73;88.84
59391;BME280;53405;57.012;40.984;2022-09-27T16:02:15;99926.13;;;9.58;89.02
59391;BME280;53405;57.012;40.984;2022-09-27T16:05:04;99926.34;;;9.48;89.28
59391;BME280;53405;57.012;40.984;2022-09-27T16:07:52;99920.81;;;9.35;89.50
59391;BME280;53405;57.012;40.984;2022-09-27T16:10:47;99923.00;;;9.23;90.17
59391;BME280;53405;57.012;40.984;2022-09-27T16:13:36;99924.16;;;9.20;90.20
59391;BME280;53405;57.012;40.984;2022-09-27T16:16:24;99925.66;;;9.15;90.22
59391;BME280;53405;57.012;40.984;2022-09-27T16:19:12;99919.31;;;9.01;90.23
59391;BME280;53405;57.012;40.984;2022-09-27T16:22:00;99919.00;;;8.96;90.68
59391;BME280;53405;57.012;40.984;2022-09-27T16:24:49;99918.50;;;8.92;90.68
59391;BME280;53405;57.012;40.984;2022-09-27T16:27:37;99918.38;;;8.85;91.38
59391;BME280;53405;57.012;40.984;2022-09-27T16:30:26;99909.50;;;8.86;91.13
59391;BME280;53405;57.012;40.984;2022-09-27T16:33:14;99911.81;;;8.90;91.10
59391;BME280;53405;57.012;40.984;2022-09-27T16:36:05;99917.22;;;8.88;91.11
59391;BME280;53405;57.012;40.984;2022-09-27T16:38:55;99917.69;;;8.92;90.96
59391;BME280;53405;57.012;40.984;2022-09-27T16:41:42;99904.91;;;8.89;90.38
59391;BME280;53405;57.012;40.984;2022-09-27T16:44:30;99913.44;;;8.82;90.61
59391;BME280;53405;57.012;40.984;2022-09-27T16:47:20;99909.19;;;8.81;91.16
59391;BME280;53405;57.012;40.984;2022-09-27T16:50:10;99906.88;;;8.86;90.81
59391;BME280;53405;57.012;40.984;2022-09-27T16:53:17;99903.63;;;8.76;90.59
59391;BME280;53405;57.012;40.984;2022-09-27T16:56:04;99906.44;;;8.66;90.62
59391;BME280;53405;57.012;40.984;2022-09-27T16:58:52;99905.31;;;8.61;91.06
59391;BME280;53405;57.012;40.984;2022-09-27T17:01:39;99903.03;;;8.58;90.98
59391;BME280;53405;57.012;40.984;2022-09-27T17:04:27;99905.13;;;8.54;91.40
59391;BME280;53405;57.012;40.984;2022-09-27T17:07:15;99881.38;;;8.31;91.38
59391;BME280;53405;57.012;40.984;2022-09-27T17:10:03;99905.63;;;8.41;91.37
59391;BME280;53405;57.012;40.984;2022-09-27T17:12:51;99907.75;;;8.38;91.84
59391;BME280;53405;57.012;40.984;2022-09-27T17:15:39;99911.38;;;8.37;91.85
59391;BME280;53405;57.012;40.984;2022-09-27T17:18:27;99903.00;;;8.33;91.88
59391;BME280;53405;57.012;40.984;2022-09-27T17:21:15;99889.06;;;8.16;91.92
59391;BME280;53405;57.012;40.984;2022-09-27T17:24:03;99897.94;;;8.23;92.03
59391;BME280;53405;57.012;40.984;2022-09-27T17:26:51;99913.53;;;8.25;92.18
59391;BME280;53405;57.012;40.984;2022-09-27T17:29:39;99903.50;;;8.20;92.47
59391;BME280;53405;57.012;40.984;2022-09-27T17:32:27;99879.25;;;8.10;92.62
59391;BME280;53405;57.012;40.984;2022-09-27T17:35:14;99903.19;;;8.23;92.45
59391;BME280;53405;57.012;40.984;2022-09-27T17:38:02;99903.34;;;8.22;92.27
59391;BME280;53405;57.012;40.984;2022-09-27T17:41:02;99881.69;;;8.11;92.33
59391;BME280;53405;57.012;40.984;2022-09-27T17:43:58;99885.47;;;8.17;92.66
59391;BME280;53405;57.012;40.984;2022-09-27T17:46:47;99892.34;;;8.18;92.67
59391;BME280;53405;57.012;40.984;2022-09-27T17:49:54;99891.22;;;8.12;93.09
59391;BME280;53405;57.012;40.984;2022-09-27T17:53:01;99885.16;;;8.12;93.19
59391;BME280;53405;57.012;40.984;2022-09-27T17:55:49;99893.34;;;8.17;92.97
59391;BME280;53405;57.012;40.984;2022-09-27T17:58:59;99892.69;;;8.23;93.11
59391;BME280;53405;57.012;40.984;2022-09-27T18:01:48;99895.47;;;8.30;93.14
59391;BME280;53405;57.012;40.984;2022-09-27T18:04:35;99890.06;;;8.23;92.80
59391;BME280;53405;57.012;40.984;2022-09-27T18:07:23;99887.63;;;8.22;93.04
59391;BME280;53405;57.012;40.984;2022-09-27T18:10:11;99885.16;;;8.20;93.04
59391;BME280;53405;57.012;40.984;2022-09-27T18:12:59;99877.44;;;8.19;93.12
59391;BME280;53405;57.012;40.984;2022-09-27T18:15:56;99872.06;;;8.12;92.87
59391;BME280;53405;57.012;40.984;2022-09-27T18:18:46;99883.19;;;8.14;93.13
59391;BME280;53405;57.012;40.984;2022-09-27T18:21:34;99873.03;;;8.11;93.27
59391;BME280;53405;57.012;40.984;2022-09-27T18:24:22;99876.78;;;8.08;93.48